Time;durP1;ratioP1;P1;durP2;ratioP2;P2;SDS_P1;SDS_P2;PMS_P1;PMS_P2;Temp;Humidity;BMP_temperature;BMP_pressure;BME280_temperature;BME280_humidity;BME280_pressure;Samples;Min_cycle;Max_cycle;Signal;HPM_P1;HPM_P2
2023/12/15 00:00:55;;;;;;;25.15;17.00;;;;;;;4.93;100.00;102451.75;6305925;22;20003;-82
2023/12/15 00:03:20;;;;;;;30.58;15.05;;;;;;;4.91;100.00;102466.09;6305926;22;20370;-79
2023/12/15 00:05:46;;;;;;;30.20;16.65;;;;;;;4.94;100.00;102471.13;6303785;22;20007;-79
2023/12/15 00:08:11;;;;;;;29.15;15.15;;;;;;;4.97;100.00;102478.81;6304257;22;20030;-80
2023/12/15 00:10:36;;;;;;;27.50;18.35;;;;;;;4.95;100.00;102467.50;6305802;22;20115;-82
2023/12/15 00:13:02;;;;;;;31.85;15.13;;;;;;;4.95;100.00;102480.75;6304222;22;20011;-80
2023/12/15 00:15:27;;;;;;;31.80;18.90;;;;;;;4.98;100.00;102491.94;6305969;22;20003;-81
2023/12/15 00:17:53;;;;;;;35.40;17.17;;;;;;;4.90;100.00;102482.97;6304146;22;19999;-80
2023/12/15 00:20:18;;;;;;;34.75;17.42;;;;;;;4.98;100.00;102499.03;6306077;22;20534;-82
2023/12/15 00:22:43;;;;;;;32.30;17.45;;;;;;;4.98;100.00;102501.69;6306149;22;20027;-81
2023/12/15 00:25:09;;;;;;;31.92;17.13;;;;;;;5.01;100.00;102492.63;6305809;22;20011;-80
2023/12/15 00:27:34;;;;;;;33.83;19.20;;;;;;;5.02;100.00;102494.31;6304199;22;20003;-80
2023/12/15 00:29:59;;;;;;;40.03;18.83;;;;;;;4.98;100.00;102488.44;6305827;22;20011;-81
2023/12/15 00:32:25;;;;;;;32.97;17.92;;;;;;;4.94;100.00;102490.53;6306033;22;20061;-81
2023/12/15 00:34:50;;;;;;;35.40;20.75;;;;;;;4.96;100.00;102487.75;6305627;22;20329;-79
2023/12/15 00:37:15;;;;;;;42.53;22.60;;;;;;;4.96;100.00;102491.22;6305844;22;19999;-80
2023/12/15 00:39:41;;;;;;;36.25;19.40;;;;;;;4.94;100.00;102487.88;6305602;22;20056;-80
2023/12/15 00:42:06;;;;;;;36.75;18.80;;;;;;;4.96;100.00;102487.75;6305642;22;20003;-80
2023/12/15 00:44:34;;;;;;;33.75;18.00;;;;;;;5.01;100.00;102496.13;6305781;22;20038;-80
2023/12/15 00:47:00;;;;;;;42.72;19.10;;;;;;;5.03;100.00;102494.16;6304147;22;20027;-81
2023/12/15 00:49:26;;;;;;;39.80;20.90;;;;;;;5.02;100.00;102495.13;6305890;22;20444;-80
2023/12/15 00:51:51;;;;;;;41.90;20.75;;;;;;;5.01;100.00;102485.50;6305690;22;20011;-81
2023/12/15 00:54:16;;;;;;;38.65;18.08;;;;;;;5.04;100.00;102495.84;6304019;22;20011;-81
2023/12/15 00:56:42;;;;;;;43.38;22.30;;;;;;;5.07;100.00;102492.91;6304035;22;20007;-81
2023/12/15 00:59:07;;;;;;;44.38;20.38;;;;;;;5.05;100.00;102502.81;6305986;22;20003;-81
2023/12/15 01:01:32;;;;;;;39.75;18.27;;;;;;;5.15;100.00;102514.25;6304038;22;20011;-81
2023/12/15 01:03:58;;;;;;;46.65;23.30;;;;;;;5.13;100.00;102521.53;6303960;22;20004;-80
2023/12/15 01:06:23;;;;;;;36.40;18.83;;;;;;;5.12;100.00;102517.19;6305645;22;20398;-81
2023/12/15 01:08:49;;;;;;;43.38;18.35;;;;;;;5.17;100.00;102522.91;6305636;22;20007;-81
2023/12/15 01:11:14;;;;;;;34.25;17.88;;;;;;;5.12;100.00;102509.25;6304076;22;20069;-80
2023/12/15 01:13:39;;;;;;;47.67;19.92;;;;;;;5.19;100.00;102520.97;6305519;22;20048;-81
2023/12/15 01:16:05;;;;;;;47.90;25.77;;;;;;;5.17;100.00;102517.63;6305234;22;20003;-82
2023/12/15 01:18:31;;;;;;;43.13;20.80;;;;;;;5.14;100.00;102523.19;6305014;22;20327;-82
2023/12/15 01:20:56;;;;;;;41.08;21.30;;;;;;;5.17;100.00;102517.63;6303963;22;20011;-81
2023/12/15 01:23:22;;;;;;;44.65;21.13;;;;;;;5.14;100.00;102522.34;6305599;22;20010;-82
2023/12/15 01:25:47;;;;;;;42.70;20.63;;;;;;;5.14;100.00;102528.50;6303639;22;20332;-81
2023/12/15 01:28:12;;;;;;;43.70;21.05;;;;;;;5.16;100.00;102533.66;6303821;22;20447;-84
2023/12/15 01:30:38;;;;;;;45.80;19.08;;;;;;;5.20;100.00;102535.06;6303740;22;20097;-81
2023/12/15 01:33:03;;;;;;;48.42;20.88;;;;;;;5.15;100.00;102535.47;6305385;22;20010;-81
2023/12/15 01:35:28;;;;;;;42.83;20.65;;;;;;;5.17;100.00;102538.00;6305628;22;20007;-80
2023/12/15 01:37:54;;;;;;;42.40;20.48;;;;;;;5.21;100.00;102547.38;6305446;22;20254;-83
2023/12/15 01:40:19;;;;;;;44.47;20.25;;;;;;;5.23;100.00;102537.47;6305474;22;20489;-82
2023/12/15 01:42:46;;;;;;;41.00;19.35;;;;;;;5.24;100.00;102545.28;6305316;22;20393;-81
2023/12/15 01:45:12;;;;;;;47.53;20.92;;;;;;;5.20;100.00;102540.38;6305250;22;20027;-81
2023/12/15 01:47:37;;;;;;;41.75;19.85;;;;;;;5.24;100.00;102539.97;6305392;22;20011;-81
2023/12/15 01:50:03;;;;;;;44.30;18.60;;;;;;;5.29;100.00;102553.66;6305510;22;20072;-81
2023/12/15 01:52:28;;;;;;;42.88;18.63;;;;;;;5.21;100.00;102542.06;6305387;22;20010;-83
2023/12/15 01:54:54;;;;;;;42.78;20.05;;;;;;;5.23;100.00;102550.72;6303788;22;20085;-81
2023/12/15 01:57:19;;;;;;;46.47;19.42;;;;;;;5.26;100.00;102553.09;6305150;22;20039;-83
2023/12/15 01:59:48;;;;;;;39.58;19.10;;;;;;;5.21;100.00;102556.16;6305143;22;20006;-81
2023/12/15 02:02:15;;;;;;;34.38;16.67;;;;;;;5.22;100.00;102565.81;6329643;22;20011;-81
2023/12/15 02:04:40;;;;;;;38.97;18.92;;;;;;;5.22;100.00;102549.88;6305100;22;20029;-83
2023/12/15 02:07:06;;;;;;;39.58;19.20;;;;;;;5.18;100.00;102556.41;6304986;22;20007;-81
2023/12/15 02:09:31;;;;;;;39.00;18.77;;;;;;;5.20;100.00;102569.53;6305109;22;19999;-81
2023/12/15 02:11:57;;;;;;;38.67;18.75;;;;;;;5.25;100.00;102576.13;6303321;22;20014;-82
2023/12/15 02:14:23;;;;;;;37.97;18.42;;;;;;;5.24;100.00;102563.84;6305141;22;20004;-82
2023/12/15 02:16:48;;;;;;;39.53;19.60;;;;;;;5.23;100.00;102566.63;6305163;22;20057;-82
2023/12/15 02:19:13;;;;;;;46.00;20.40;;;;;;;5.18;100.00;102555.56;6305029;22;20467;-81
2023/12/15 02:21:39;;;;;;;49.20;21.58;;;;;;;5.25;100.00;102572.63;6305031;22;20038;-81
2023/12/15 02:24:04;;;;;;;43.13;19.88;;;;;;;5.23;100.00;102572.78;6303502;22;20310;-82
2023/12/15 02:26:30;;;;;;;43.33;19.13;;;;;;;5.25;100.00;102564.69;6329526;22;20011;-83
2023/12/15 02:28:55;;;;;;;45.00;21.80;;;;;;;5.34;100.00;102589.53;6305621;22;19999;-81
2023/12/15 02:31:21;;;;;;;39.80;19.58;;;;;;;5.33;100.00;102586.06;6306313;22;20074;-82
2023/12/15 02:33:47;;;;;;;47.20;20.42;;;;;;;5.27;100.00;102584.78;6306289;22;20056;-82
2023/12/15 02:36:20;;;;;;;41.80;19.60;;;;;;;5.33;100.00;102598.47;6306384;22;20003;-82
2023/12/15 02:38:46;;;;;;;45.28;20.27;;;;;;;5.35;100.00;102593.88;6306330;22;20057;-82
2023/12/15 02:41:12;;;;;;;46.70;20.70;;;;;;;5.27;100.00;102584.78;6306541;22;20011;-83
2023/12/15 02:43:37;;;;;;;42.47;20.73;;;;;;;5.29;100.00;102596.09;6304909;22;20010;-82
2023/12/15 02:46:03;;;;;;;43.35;20.85;;;;;;;5.34;100.00;102605.44;6306392;22;20007;-82
2023/12/15 02:48:29;;;;;;;49.67;21.10;;;;;;;5.28;100.00;102598.88;6306289;22;20061;-80
2023/12/15 02:50:54;;;;;;;46.20;20.23;;;;;;;5.24;100.00;102593.03;6306147;22;20033;-81
2023/12/15 02:53:19;;;;;;;58.38;22.67;;;;;;;5.33;100.00;102601.13;6306172;22;20332;-81
2023/12/15 02:55:45;;;;;;;51.60;20.83;;;;;;;5.41;100.00;102618.03;6304559;22;20412;-81
2023/12/15 02:58:10;;;;;;;49.33;21.45;;;;;;;5.34;100.00;102614.25;6304736;22;20477;-79
2023/12/15 03:00:35;;;;;;;48.80;20.58;;;;;;;5.40;100.00;102629.63;6304638;22;20053;-80
2023/12/15 03:03:01;;;;;;;55.78;22.98;;;;;;;5.39;100.00;102624.44;6304629;22;20336;-80
2023/12/15 03:05:26;;;;;;;50.15;21.67;;;;;;;5.42;100.00;102629.47;6306174;22;19999;-81
2023/12/15 03:07:52;;;;;;;54.10;22.75;;;;;;;5.45;100.00;102637.16;6304543;22;20086;-81
2023/12/15 03:10:17;;;;;;;50.00;21.13;;;;;;;5.47;100.00;102640.50;6304582;22;20052;-80
2023/12/15 03:12:42;;;;;;;60.80;22.70;;;;;;;5.45;100.00;102626.56;6304402;22;20104;-80
2023/12/15 03:15:08;;;;;;;58.00;25.10;;;;;;;5.45;100.00;102624.72;6304520;22;20427;-81
2023/12/15 03:17:34;;;;;;;58.90;23.80;;;;;;;5.46;100.00;102626.41;6306087;22;20010;-81
2023/12/15 03:19:59;;;;;;;53.58;24.80;;;;;;;5.45;100.00;102632.69;6304639;22;20003;-82
2023/12/15 03:22:24;;;;;;;53.80;22.73;;;;;;;5.53;100.00;102646.13;6304487;22;20019;-81
2023/12/15 03:24:50;;;;;;;52.75;22.67;;;;;;;5.47;100.00;102643.16;6304449;22;20424;-80
2023/12/15 03:27:15;;;;;;;61.10;22.67;;;;;;;5.59;100.00;102665.97;6304392;22;20003;-80
2023/12/15 03:29:41;;;;;;;57.53;24.73;;;;;;;5.57;100.00;102671.41;6305979;22;20022;-81
2023/12/15 03:32:06;;;;;;;64.53;25.67;;;;;;;5.49;100.00;102655.34;6304415;22;20007;-80
2023/12/15 03:34:31;;;;;;;72.70;28.73;;;;;;;5.62;100.00;102672.81;6306503;22;20007;-82
2023/12/15 03:36:57;;;;;;;58.53;24.33;;;;;;;5.51;100.00;102668.47;6306229;22;20004;-84
2023/12/15 03:39:22;;;;;;;52.75;23.52;;;;;;;5.60;100.00;102679.09;6305603;22;20004;-82
2023/12/15 03:41:47;;;;;;;67.30;25.83;;;;;;;5.61;100.00;102679.94;6304052;22;20007;-82
2023/12/15 03:44:13;;;;;;;69.85;26.10;;;;;;;5.63;100.00;102685.09;6306093;22;20014;-82
2023/12/15 03:46:38;;;;;;;67.47;25.33;;;;;;;5.65;100.00;102689.31;6304236;22;20031;-82
2023/12/15 03:49:03;;;;;;;67.57;25.48;;;;;;;5.57;100.00;102686.50;6305967;22;20010;-82
2023/12/15 03:51:28;;;;;;;62.40;24.90;;;;;;;5.65;100.00;102684.00;6305668;22;20003;-82
2023/12/15 03:53:54;;;;;;;68.20;27.10;;;;;;;5.57;100.00;102673.22;6305939;22;20003;-81
2023/12/15 03:56:26;;;;;;;63.75;25.73;;;;;;;5.64;100.00;102695.59;6305965;22;20029;-80
2023/12/15 03:58:52;;;;;;;70.47;25.52;;;;;;;5.61;100.00;102687.91;6304230;22;20007;-81
2023/12/15 04:01:17;;;;;;;80.97;29.88;;;;;;;5.64;100.00;102698.25;6305965;22;20010;-80
2023/12/15 04:03:43;;;;;;;71.65;25.50;;;;;;;5.63;100.00;102685.94;6304242;22;19999;-82
2023/12/15 04:06:08;;;;;;;72.78;27.20;;;;;;;5.64;100.00;102700.91;6306057;22;20014;-82
2023/12/15 04:08:34;;;;;;;65.30;25.00;;;;;;;5.64;100.00;102700.91;6304291;22;20057;-81
2023/12/15 04:11:00;;;;;;;78.28;27.70;;;;;;;5.69;100.00;102711.09;6304069;22;20011;-81
2023/12/15 04:13:26;;;;;;;79.32;28.63;;;;;;;5.69;100.00;102711.09;6306012;22;20004;-82
2023/12/15 04:15:52;;;;;;;66.05;26.55;;;;;;;5.70;100.00;102710.97;6305868;22;20003;-81
2023/12/15 04:18:17;;;;;;;70.90;27.60;;;;;;;5.67;100.00;102695.31;6304257;22;20014;-81
2023/12/15 04:20:43;;;;;;;81.75;27.60;;;;;;;5.72;100.00;102709.00;6305790;22;20011;-81
2023/12/15 04:23:08;;;;;;;75.35;25.70;;;;;;;5.71;100.00;102712.63;6304235;22;20107;-82
2023/12/15 04:25:33;;;;;;;69.20;26.98;;;;;;;5.69;100.00;102706.63;6305915;22;20003;-81
2023/12/15 04:27:59;;;;;;;81.80;28.15;;;;;;;5.69;100.00;102711.94;6304190;22;20011;-82
2023/12/15 04:30:24;;;;;;;82.18;26.65;;;;;;;5.75;100.00;102724.66;6305767;22;20011;-81
2023/12/15 04:33:02;;;;;;;83.07;28.52;;;;;;;5.71;100.00;102717.94;6305712;22;20364;-81
2023/12/15 04:35:27;;;;;;;82.82;28.35;;;;;;;5.67;100.00;102721.84;6304179;22;20007;-82
2023/12/15 04:37:53;;;;;;;73.47;25.63;;;;;;;5.73;100.00;102736.38;6305787;22;20375;-81
2023/12/15 04:40:18;;;;;;;87.43;30.38;;;;;;;5.73;100.00;102737.22;6305729;22;20011;-81
2023/12/15 04:42:44;;;;;;;75.15;27.00;;;;;;;5.65;100.00;102722.97;6304116;22;20052;-82
2023/12/15 04:45:09;;;;;;;87.10;30.67;;;;;;;5.77;100.00;102733.31;6304099;22;20094;-82
2023/12/15 04:47:35;;;;;;;83.28;28.85;;;;;;;5.74;100.00;102722.97;6306050;22;20007;-82
2023/12/15 04:50:02;;;;;;;86.35;28.90;;;;;;;5.79;100.00;102734.06;6303985;22;20011;-81
2023/12/15 04:52:27;;;;;;;84.22;28.20;;;;;;;5.82;100.00;102732.94;6303885;22;20007;-84
2023/12/15 04:54:52;;;;;;;89.93;31.00;;;;;;;5.82;100.00;102736.44;6305641;22;20469;-83
2023/12/15 04:57:18;;;;;;;90.43;28.80;;;;;;;5.85;100.00;102743.28;6304120;22;19999;-82
2023/12/15 04:59:43;;;;;;;82.25;27.10;;;;;;;5.79;100.00;102743.84;6304041;22;20014;-82
2023/12/15 05:02:08;;;;;;;82.03;28.13;;;;;;;5.85;100.00;102756.56;6305603;22;20037;-81
2023/12/15 05:04:34;;;;;;;87.65;28.67;;;;;;;5.85;100.00;102746.78;6305770;22;20007;-82
2023/12/15 05:07:00;;;;;;;101.00;30.58;;;;;;;5.83;100.00;102739.94;6304039;22;20012;-82
2023/12/15 05:09:27;;;;;;;91.05;29.67;;;;;;;5.80;100.00;102738.38;6304143;22;20011;-82
2023/12/15 05:11:53;;;;;;;93.45;28.40;;;;;;;5.80;100.00;102733.09;6305643;22;20057;-83
2023/12/15 05:14:18;;;;;;;103.45;32.40;;;;;;;5.83;100.00;102738.13;6303951;22;20003;-81
2023/12/15 05:16:43;;;;;;;81.75;29.20;;;;;;;5.86;100.00;102752.94;6303863;22;20329;-81
2023/12/15 05:19:09;;;;;;;96.18;30.98;;;;;;;5.88;100.00;102746.50;6303914;22;20007;-82
2023/12/15 05:21:34;;;;;;;104.38;33.65;;;;;;;5.86;100.00;102742.31;6303992;22;20006;-82
2023/12/15 05:23:59;;;;;;;96.30;31.33;;;;;;;5.86;100.00;102748.47;6303759;22;20018;-82
2023/12/15 05:26:26;;;;;;;89.47;28.25;;;;;;;5.86;100.00;102752.94;6303947;22;20003;-82
2023/12/15 05:28:51;;;;;;;90.32;30.60;;;;;;;5.90;100.00;102768.47;6304181;22;20049;-81
2023/12/15 05:31:17;;;;;;;95.20;32.97;;;;;;;5.93;100.00;102775.31;6303887;22;20011;-82
2023/12/15 05:33:43;;;;;;;93.40;31.70;;;;;;;5.90;100.00;102768.47;6303778;22;20049;-82
2023/12/15 05:36:17;;;;;;;105.50;32.20;;;;;;;5.97;100.00;102775.88;6305515;22;20007;-81
2023/12/15 05:38:42;;;;;;;99.68;31.73;;;;;;;5.93;100.00;102764.72;6303823;22;20014;-81
2023/12/15 05:41:08;;;;;;;98.20;32.83;;;;;;;5.99;100.00;102774.78;6305525;22;20027;-82
2023/12/15 05:43:33;;;;;;;94.57;30.42;;;;;;;6.01;100.00;102793.22;6303651;22;20082;-81
2023/12/15 05:45:58;;;;;;;93.40;31.27;;;;;;;6.03;100.00;102784.16;6305083;22;20011;-82
2023/12/15 05:48:23;;;;;;;95.00;32.78;;;;;;;5.99;100.00;102795.19;6303648;22;20429;-80
2023/12/15 05:50:49;;;;;;;94.50;33.15;;;;;;;5.98;100.00;102789.03;6305301;22;20057;-81
2023/12/15 05:53:14;;;;;;;105.47;34.63;;;;;;;6.01;100.00;102793.22;6305987;22;19999;-80
2023/12/15 05:55:40;;;;;;;92.60;30.30;;;;;;;6.10;100.00;102797.75;6303842;22;20102;-81
2023/12/15 05:58:05;;;;;;;87.30;29.98;;;;;;;6.10;100.00;102795.09;6305143;22;20079;-81
2023/12/15 06:00:30;;;;;;;99.28;33.50;;;;;;;6.01;100.00;102791.41;6303424;22;20011;-81
2023/12/15 06:02:55;;;;;;;105.75;32.65;;;;;;;6.05;100.00;102799.94;6305250;22;20006;-80
2023/12/15 06:05:21;;;;;;;98.50;31.48;;;;;;;6.00;100.00;102803.00;6306662;22;20375;-82
2023/12/15 06:07:46;;;;;;;92.50;32.13;;;;;;;6.02;100.00;102801.06;6304946;22;20004;-84
2023/12/15 06:10:12;;;;;;;92.93;32.45;;;;;;;6.04;100.00;102801.75;6306544;22;20033;-83
2023/12/15 06:12:37;;;;;;;98.35;31.63;;;;;;;6.07;100.00;102804.16;6304920;22;20010;-84
2023/12/15 06:15:03;;;;;;;97.63;33.72;;;;;;;6.02;100.00;102801.06;6306550;22;20468;-80
2023/12/15 06:17:28;;;;;;;107.30;32.50;;;;;;;6.07;100.00;102803.28;6306625;22;20007;-80
2023/12/15 06:19:54;;;;;;;103.82;32.92;;;;;;;6.10;100.00;102811.03;6305377;22;20011;-81
2023/12/15 06:22:31;;;;;;;104.05;34.53;;;;;;;6.10;100.00;102816.34;6305066;22;20010;-79
2023/12/15 06:24:57;;;;;;;94.00;33.30;;;;;;;6.15;100.00;102824.72;6305118;22;20072;-78
2023/12/15 06:27:22;;;;;;;103.90;35.13;;;;;;;6.11;100.00;102808.22;6306474;22;20361;-80
2023/12/15 06:29:47;;;;;;;99.18;33.55;;;;;;;6.15;100.00;102819.41;6306235;22;20470;-80
2023/12/15 06:32:15;;;;;;;103.22;34.67;;;;;;;6.11;100.00;102825.97;6304828;22;20015;-77
2023/12/15 06:34:42;;;;;;;94.75;33.55;;;;;;;6.14;100.00;102836.31;6304843;22;20003;-78
2023/12/15 06:37:08;;;;;;;94.18;33.17;;;;;;;6.17;100.00;102844.03;6306519;22;20003;-79
2023/12/15 06:39:33;;;;;;;93.35;31.50;;;;;;;6.18;100.00;102835.91;6306424;22;19999;-79
2023/12/15 06:41:59;;;;;;;105.57;36.55;;;;;;;6.11;100.00;102821.50;6304616;22;20003;-78
2023/12/15 06:44:24;;;;;;;92.43;32.42;;;;;;;6.22;100.00;102842.63;6306358;22;20023;-78
2023/12/15 06:46:49;;;;;;;94.65;31.80;;;;;;;6.18;100.00;102833.25;6306183;22;20404;-79
2023/12/15 06:49:17;;;;;;;95.70;34.28;;;;;;;6.17;100.00;102844.84;6306339;22;20010;-78
2023/12/15 06:51:43;;;;;;;97.38;36.03;;;;;;;6.18;100.00;102846.53;6306322;22;20001;-78
2023/12/15 06:54:09;;;;;;;93.55;32.53;;;;;;;6.12;100.00;102835.63;6306462;22;20450;-79
2023/12/15 06:56:37;;;;;;;92.38;33.75;;;;;;;6.18;100.00;102848.34;6304811;22;19995;-79
2023/12/15 07:05:15;;;;;;;99.55;34.60;;;;;;;6.20;100.00;102860.53;6306774;22;20384;-79
2023/12/15 07:07:40;;;;;;;100.97;34.13;;;;;;;6.20;100.00;102870.31;6306288;22;20003;-79
2023/12/15 07:10:06;;;;;;;95.43;32.03;;;;;;;6.12;100.00;102864.84;6305196;22;20053;-78
2023/12/15 07:12:31;;;;;;;96.90;34.30;;;;;;;6.20;100.00;102880.94;6306160;22;20017;-78
2023/12/15 07:14:57;;;;;;;96.05;34.20;;;;;;;6.24;100.00;102892.97;6306088;22;20014;-78
2023/12/15 07:17:22;;;;;;;99.72;32.78;;;;;;;6.22;100.00;102887.78;6304660;22;20014;-79
2023/12/15 07:19:47;;;;;;;93.18;35.03;;;;;;;6.26;100.00;102893.66;6306251;22;20023;-79
2023/12/15 07:22:13;;;;;;;93.78;33.70;;;;;;;6.27;100.00;102889.19;6306161;22;20028;-78
2023/12/15 07:24:40;;;;;;;98.30;34.20;;;;;;;6.30;100.00;102896.88;6306053;22;20014;-79
2023/12/15 07:27:06;;;;;;;113.82;35.65;;;;;;;6.30;100.00;102895.06;6305965;22;20306;-79
2023/12/15 07:29:31;;;;;;;94.70;32.63;;;;;;;6.22;100.00;102900.22;6306027;22;20485;-78
2023/12/15 07:31:57;;;;;;;92.60;34.00;;;;;;;6.24;100.00;102900.09;6306058;22;20007;-79
2023/12/15 07:34:22;;;;;;;112.18;36.60;;;;;;;6.25;100.00;102896.47;6306283;22;20007;-76
2023/12/15 07:36:48;;;;;;;96.10;34.40;;;;;;;6.25;100.00;102889.34;6304326;22;20389;-79
2023/12/15 07:39:13;;;;;;;100.93;34.83;;;;;;;6.26;100.00;102900.78;6304426;22;20381;-79
2023/12/15 07:41:42;;;;;;;86.10;29.95;;;;;;;6.25;100.00;102917.72;6304240;22;20014;-79
2023/12/15 07:44:07;;;;;;;102.97;34.42;;;;;;;6.26;100.00;102914.91;6304456;22;20090;-79
2023/12/15 07:46:33;;;;;;;99.07;35.55;;;;;;;6.25;100.00;102907.94;6304350;22;20028;-80
2023/12/15 07:48:59;;;;;;;104.80;34.33;;;;;;;6.27;100.00;102905.97;6305944;22;20013;-78
2023/12/15 07:51:24;;;;;;;104.15;33.92;;;;;;;6.29;100.00;102925.28;6304260;22;20011;-79
2023/12/15 07:53:50;;;;;;;107.47;34.53;;;;;;;6.26;100.00;102912.25;6304850;22;20352;-78
2023/12/15 07:56:19;;;;;;;100.95;30.98;;;;;;;6.35;100.00;102930.03;6305257;22;20397;-79
2023/12/15 07:58:45;;;;;;;108.53;35.08;;;;;;;6.35;100.00;102931.84;6304933;22;20045;-79
2023/12/15 08:01:10;;;;;;;104.32;34.83;;;;;;;6.39;100.00;102930.63;6306690;22;20571;-80
2023/12/15 08:03:35;;;;;;;108.63;34.95;;;;;;;6.32;100.00;102924.16;6304885;22;20464;-79
2023/12/15 08:06:01;;;;;;;114.57;35.35;;;;;;;6.33;100.00;102939.97;6306288;22;20003;-80
2023/12/15 08:08:26;;;;;;;111.82;34.20;;;;;;;6.39;100.00;102958.06;6306519;22;20483;-77
2023/12/15 08:10:51;;;;;;;97.55;35.28;;;;;;;6.40;100.00;102935.81;6304745;22;20011;-79
2023/12/15 08:13:16;;;;;;;106.10;34.38;;;;;;;6.43;100.00;102943.53;6304818;22;20368;-79
2023/12/15 08:15:42;;;;;;;103.03;36.58;;;;;;;6.46;100.00;102961.00;6306549;22;20038;-78
2023/12/15 08:18:07;;;;;;;103.72;34.13;;;;;;;6.44;100.00;102963.81;6306464;22;20042;-79
2023/12/15 08:20:33;;;;;;;97.22;32.70;;;;;;;6.49;100.00;102979.34;6306462;22;20397;-79
2023/12/15 08:22:58;;;;;;;93.15;30.35;;;;;;;6.49;100.00;102979.34;6306460;22;20060;-79
2023/12/15 08:25:23;;;;;;;101.57;33.95;;;;;;;6.47;100.00;102979.47;6306212;22;20007;-81
2023/12/15 08:27:48;;;;;;;79.80;31.02;;;;;;;6.41;100.00;102966.72;6304611;22;20076;-80
2023/12/15 08:30:14;;;;;;;93.65;34.22;;;;;;;6.48;100.00;102978.50;6306321;22;20074;-79
2023/12/15 08:32:39;;;;;;;103.28;34.20;;;;;;;6.53;100.00;102996.69;6306415;22;20011;-80
2023/12/15 08:35:05;;;;;;;98.07;32.60;;;;;;;6.55;100.00;103002.72;6306284;22;20413;-80
2023/12/15 08:37:30;;;;;;;94.35;32.20;;;;;;;6.52;100.00;103008.28;6306361;22;20027;-79
2023/12/15 08:39:55;;;;;;;97.05;33.78;;;;;;;6.57;100.00;103014.03;6306389;22;20021;-79
2023/12/15 08:42:21;;;;;;;89.20;32.65;;;;;;;6.58;100.00;103021.03;6304901;22;20408;-82
2023/12/15 08:44:46;;;;;;;89.50;32.10;;;;;;;6.61;100.00;103026.09;6304835;22;20408;-81
2023/12/15 08:47:11;;;;;;;97.38;33.22;;;;;;;6.63;100.00;103024.13;6306460;22;20017;-82
2023/12/15 08:49:37;;;;;;;86.57;32.17;;;;;;;6.60;100.00;103019.09;6304580;22;20011;-82
2023/12/15 08:52:02;;;;;;;95.60;32.40;;;;;;;6.64;100.00;103025.81;6304739;22;20109;-81
2023/12/15 09:00:36;;;;;;;87.85;33.47;;;;;;;6.71;100.00;103034.13;6306428;22;20017;-81
2023/12/15 09:03:02;;;;;;;91.03;32.10;;;;;;;6.73;100.00;103037.47;6306332;22;20085;-81
2023/12/15 09:05:27;;;;;;;86.50;31.98;;;;;;;6.74;100.00;103042.66;6305018;22;20014;-82
2023/12/15 09:07:53;;;;;;;78.82;30.75;;;;;;;6.89;100.00;103061.72;6306615;22;20007;-82
2023/12/15 09:10:19;;;;;;;84.10;30.83;;;;;;;6.91;100.00;103051.81;6306359;22;20007;-81
2023/12/15 09:12:45;;;;;;;90.15;33.65;;;;;;;6.96;100.00;103049.59;6304612;22;20096;-81
2023/12/15 09:15:12;;;;;;;78.60;30.35;;;;;;;6.98;100.00;103052.13;6304652;22;20059;-82
2023/12/15 09:17:38;;;;;;;81.60;32.97;;;;;;;6.95;100.00;103050.59;6304811;22;20007;-81
2023/12/15 09:20:04;;;;;;;77.68;30.52;;;;;;;6.93;100.00;103049.84;6304801;22;20018;-83
2023/12/15 09:22:30;;;;;;;74.22;29.20;;;;;;;6.97;100.00;103064.59;6304958;22;20435;-83
2023/12/15 09:24:55;;;;;;;74.25;29.10;;;;;;;6.99;100.00;103078.59;6304726;22;20080;-82
2023/12/15 09:27:21;;;;;;;85.13;33.30;;;;;;;7.00;100.00;103085.59;6304576;22;20007;-81
2023/12/15 09:29:46;;;;;;;85.07;33.08;;;;;;;7.07;100.00;103092.03;6304466;22;20023;-82
2023/12/15 09:32:11;;;;;;;73.20;30.58;;;;;;;7.10;100.00;103096.25;6304699;22;20375;-81
2023/12/15 09:34:37;;;;;;;76.25;29.38;;;;;;;7.04;100.00;103089.66;6304586;22;20008;-82
2023/12/15 09:37:02;;;;;;;75.78;29.02;;;;;;;7.17;100.00;103096.53;6305814;22;20003;-82
2023/12/15 09:39:28;;;;;;;76.88;28.58;;;;;;;7.18;100.00;103108.84;6305577;22;20014;-83
2023/12/15 09:41:53;;;;;;;71.50;27.98;;;;;;;7.23;100.00;103117.28;6304462;22;20029;-82
2023/12/15 09:44:27;;;;;;;73.15;29.48;;;;;;;7.07;100.00;103102.69;6304608;22;20003;-82
2023/12/15 09:46:58;;;;;;;68.43;26.75;;;;;;;7.05;100.00;103104.63;6306101;22;20053;-82
2023/12/15 09:49:25;;;;;;;74.30;28.98;;;;;;;7.22;100.00;103137.72;6304736;22;20094;-84
2023/12/15 09:51:51;;;;;;;69.28;28.27;;;;;;;7.23;100.00;103147.41;6304236;22;20726;-80
2023/12/15 09:54:21;;;;;;;60.80;26.05;;;;;;;7.15;100.00;103140.09;6304542;22;20090;-81
2023/12/15 09:57:01;;;;;;;65.72;27.15;;;;;;;7.05;100.00;103141.88;6278494;22;20421;-82
2023/12/15 09:59:26;;;;;;;69.45;26.40;;;;;;;7.15;100.00;103160.53;6304438;22;20011;-81
2023/12/15 10:01:52;;;;;;;69.00;27.48;;;;;;;6.98;100.00;103119.47;6306130;22;20007;-81
2023/12/15 10:04:17;;;;;;;65.60;28.15;;;;;;;7.32;100.00;103159.06;6304328;22;20098;-83
2023/12/15 10:06:43;;;;;;;58.30;25.20;;;;;;;7.08;100.00;103122.97;6305902;22;20025;-83
2023/12/15 10:09:17;;;;;;;64.20;25.73;;;;;;;7.30;100.00;103166.34;6305960;22;20004;-82
2023/12/15 10:12:18;;;;;;;56.75;24.70;;;;;;;7.26;100.00;103159.59;6304447;22;20007;-83
2023/12/15 10:14:56;;;;;;;61.67;24.80;;;;;;;7.12;100.00;103147.50;6304897;22;20014;-82
2023/12/15 10:17:22;;;;;;;57.42;25.48;;;;;;;7.21;100.00;103164.47;6304548;22;20367;-83
2023/12/15 10:19:47;;;;;;;59.33;25.58;;;;;;;7.13;100.00;103155.34;6304146;22;20010;-84
2023/12/15 10:22:12;;;;;;;56.47;23.00;;;;;;;7.32;100.00;103191.00;6303996;22;20000;-82
2023/12/15 10:25:35;;;;;;;63.10;26.95;;;;;;;7.37;100.00;103204.72;6305709;22;20061;-83
2023/12/15 10:28:10;;;;;;;58.45;23.38;;;;;;;7.08;100.00;103160.22;6304341;22;20011;-83
2023/12/15 10:37:27;;;;;;;59.05;23.00;;;;;;;7.50;100.00;103228.44;6273846;22;20332;-83
2023/12/15 10:40:05;;;;;;;49.85;20.15;;;;;;;7.18;100.00;103176.22;6246290;22;20004;-83
2023/12/15 10:42:37;;;;;;;50.58;20.27;;;;;;;7.12;100.00;103174.94;6270970;22;20324;-83
2023/12/15 10:45:04;;;;;;;46.75;20.13;;;;;;;7.27;100.00;103196.72;6305746;22;19999;-83
2023/12/15 10:47:45;;;;;;;48.55;20.85;;;;;;;7.13;100.00;103187.25;6304236;22;20007;-83
2023/12/15 10:50:26;;;;;;;;;;;;;;;;;;;;;
2023/12/15 10:52:52;;;;;;;51.05;26.73;;;;;;;7.18;100.00;103189.53;6307242;22;20098;-83
2023/12/15 10:55:20;;;;;;;56.60;30.77;;;;;;;7.39;100.00;103218.75;6307279;22;20027;-83
2023/12/15 10:57:47;;;;;;;43.25;20.48;;;;;;;7.38;100.00;103223.22;6306741;22;20509;-84
2023/12/15 11:00:13;;;;;;;38.47;19.60;;;;;;;7.60;100.00;103254.13;6305441;22;20014;-84
2023/12/15 11:02:39;;;;;;;47.17;21.58;;;;;;;7.37;100.00;103218.03;6305552;22;20432;-84
2023/12/15 11:05:09;;;;;;;40.88;20.40;;;;;;;7.59;100.00;103268.44;6305416;22;20096;-83
2023/12/15 11:07:40;;;;;;;49.55;22.40;;;;;;;7.32;100.00;103237.06;6305570;22;20004;-82
2023/12/15 11:10:12;;;;;;;46.08;19.80;;;;;;;7.44;100.00;103259.09;6305163;22;20011;-83
2023/12/15 11:12:41;;;;;;;47.00;20.35;;;;;;;7.24;100.00;103226.25;6305779;22;20004;-82
2023/12/15 11:15:18;;;;;;;48.80;20.58;;;;;;;7.34;100.00;103245.78;6305537;22;20037;-83
2023/12/15 11:17:50;;;;;;;39.33;19.08;;;;;;;7.28;100.00;103226.84;6305319;22;20007;-83
2023/12/15 11:20:18;;;;;;;42.42;18.88;;;;;;;7.67;100.00;103284.56;6305299;22;20037;-83
2023/12/15 11:22:56;;;;;;;40.40;18.38;;;;;;;7.65;100.00;103283.88;6307003;22;20025;-83
2023/12/15 11:25:46;;;;;;;42.50;17.90;;;;;;;7.40;100.00;103231.91;6305130;22;20007;-84